createdAt,value
2022-09-07T00:02:48.752Z,4.10
2022-09-07T00:05:46.305Z,4.20
2022-09-07T00:08:44.497Z,4.30
2022-09-07T00:11:41.970Z,4.40
2022-09-07T00:14:39.464Z,4.40
2022-09-07T00:17:36.949Z,4.40
2022-09-07T00:20:34.444Z,4.10
2022-09-07T00:23:31.925Z,4.60
2022-09-07T00:26:29.375Z,4.50
2022-09-07T00:29:26.855Z,4.80
2022-09-07T00:32:24.338Z,5.20
2022-09-07T00:35:21.854Z,4.60
2022-09-07T00:38:19.340Z,4.40
2022-09-07T00:41:16.838Z,4.50
2022-09-07T00:44:14.321Z,4.50
2022-09-07T00:47:11.789Z,4.50
2022-09-07T00:50:09.532Z,4.40
2022-09-07T00:53:07.079Z,5.10
2022-09-07T00:56:04.631Z,6.00
2022-09-07T00:59:02.371Z,5.30
2022-09-07T01:01:59.873Z,5.40
2022-09-07T01:04:57.446Z,4.90
2022-09-07T01:07:57.010Z,5.10
2022-09-07T01:10:54.512Z,5.60
2022-09-07T01:13:52.011Z,5.50
2022-09-07T01:16:49.500Z,5.10
2022-09-07T01:19:47.004Z,5.50
2022-09-07T01:22:44.532Z,5.20
2022-09-07T01:25:41.984Z,4.80
2022-09-07T01:28:39.659Z,5.50
2022-09-07T01:31:37.222Z,5.60
2022-09-07T01:34:34.740Z,5.90
2022-09-07T01:37:32.205Z,5.70
2022-09-07T01:40:29.701Z,5.90
2022-09-07T01:43:27.706Z,5.60
2022-09-07T01:46:25.184Z,5.70
2022-09-07T01:49:22.726Z,5.70
2022-09-07T01:52:20.191Z,5.00
2022-09-07T01:55:17.686Z,5.10
2022-09-07T01:58:15.153Z,5.70
2022-09-07T02:01:12.697Z,5.40
2022-09-07T02:04:10.474Z,5.90
2022-09-07T02:07:07.955Z,5.50
2022-09-07T02:10:05.453Z,5.30
2022-09-07T02:13:03.215Z,5.70
2022-09-07T02:16:00.776Z,6.10
2022-09-07T02:18:58.427Z,5.70
2022-09-07T02:21:55.932Z,5.80
2022-09-07T02:24:53.389Z,6.20
2022-09-07T02:27:50.860Z,5.30
2022-09-07T02:30:48.373Z,5.70
2022-09-07T02:33:45.904Z,5.60
2022-09-07T02:36:43.407Z,5.80
2022-09-07T02:39:40.961Z,5.80
2022-09-07T02:42:38.483Z,6.20
2022-09-07T02:45:35.941Z,5.60
2022-09-07T02:48:33.419Z,5.80
2022-09-07T02:51:30.913Z,6.10
2022-09-07T02:54:28.384Z,5.80
2022-09-07T02:57:25.907Z,5.30
2022-09-07T03:00:26.422Z,6.40
2022-09-07T03:03:24.008Z,6.50
2022-09-07T03:06:21.467Z,7.90
2022-09-07T03:09:18.939Z,6.90
2022-09-07T03:12:16.484Z,6.50
2022-09-07T03:15:14.006Z,5.90
2022-09-07T03:18:12.568Z,6.30
2022-09-07T03:21:10.053Z,6.40
2022-09-07T03:24:07.538Z,6.20
2022-09-07T03:27:05.061Z,6.10
2022-09-07T03:30:02.526Z,6.90
2022-09-07T03:33:00.005Z,7.10
2022-09-07T03:35:57.602Z,6.60
2022-09-07T03:38:55.100Z,6.80
2022-09-07T03:41:52.886Z,7.30
2022-09-07T03:44:50.664Z,6.10
2022-09-07T03:47:49.330Z,6.40
2022-09-07T03:50:46.863Z,7.10
2022-09-07T03:53:44.350Z,6.60
2022-09-07T03:56:41.841Z,6.70
2022-09-07T03:59:39.299Z,6.80
2022-09-07T04:02:36.812Z,7.10
2022-09-07T04:05:34.309Z,6.90
2022-09-07T04:08:31.960Z,6.50
2022-09-07T04:11:29.565Z,6.70
2022-09-07T04:14:27.038Z,6.80
2022-09-07T04:17:24.533Z,6.80
2022-09-07T04:20:22.011Z,7.10
2022-09-07T04:23:19.502Z,7.00
2022-09-07T04:26:16.953Z,7.30
2022-09-07T04:29:14.449Z,7.10
2022-09-07T04:32:15.626Z,8.10
2022-09-07T04:35:13.472Z,7.80
2022-09-07T04:38:11.003Z,7.50
2022-09-07T04:41:09.517Z,7.40
2022-09-07T04:44:07.502Z,7.00
2022-09-07T04:47:05.008Z,7.80
2022-09-07T04:50:02.740Z,7.60
2022-09-07T04:53:00.227Z,7.00
2022-09-07T04:55:57.713Z,8.10
2022-09-07T04:58:55.203Z,7.30
2022-09-07T05:01:52.755Z,7.70
2022-09-07T05:04:50.298Z,8.00
2022-09-07T05:07:47.794Z,8.30
2022-09-07T05:10:45.286Z,8.40
2022-09-07T05:13:42.778Z,8.80
2022-09-07T05:16:40.296Z,7.50
2022-09-07T05:19:37.837Z,8.00
2022-09-07T05:22:35.724Z,7.80
2022-09-07T05:25:33.341Z,7.60
2022-09-07T05:28:31.228Z,9.40
2022-09-07T05:31:28.946Z,10.30
2022-09-07T05:37:28.782Z,10.30
2022-09-07T05:40:26.263Z,10.80
2022-09-07T05:43:24.050Z,10.80
2022-09-07T05:46:21.579Z,11.10
2022-09-07T05:49:19.114Z,10.20
2022-09-07T05:52:16.591Z,10.50
2022-09-07T05:55:29.445Z,10.40
2022-09-07T05:58:28.121Z,10.00
2022-09-07T06:01:25.670Z,10.60
2022-09-07T06:04:23.175Z,10.90
2022-09-07T06:07:22.448Z,10.20
2022-09-07T06:13:38.513Z,9.40
2022-09-07T06:16:36.029Z,8.80
2022-09-07T06:19:33.547Z,9.00
2022-09-07T06:22:31.460Z,9.80
2022-09-07T06:25:28.994Z,10.00
2022-09-07T06:28:26.465Z,9.20
2022-09-07T06:31:24.129Z,8.80
2022-09-07T06:34:23.090Z,9.00
2022-09-07T06:37:20.569Z,9.00
2022-09-07T06:40:18.058Z,9.40
2022-09-07T06:43:15.521Z,9.90
2022-09-07T06:49:30.430Z,9.60
2022-09-07T06:52:28.279Z,8.30
2022-09-07T06:55:25.896Z,7.80
2022-09-07T06:58:24.926Z,8.50
2022-09-07T07:01:22.493Z,8.30
2022-09-07T07:04:19.970Z,7.10
2022-09-07T07:07:17.462Z,7.30
2022-09-07T07:10:14.961Z,7.40
2022-09-07T07:13:12.447Z,6.80
2022-09-07T07:16:09.947Z,6.80
2022-09-07T07:19:07.459Z,6.50
2022-09-07T07:22:18.711Z,6.20
2022-09-07T07:25:22.422Z,6.90
2022-09-07T07:31:37.369Z,6.70
2022-09-07T07:34:34.866Z,7.20
2022-09-07T07:37:32.445Z,6.50
2022-09-07T07:40:31.864Z,7.00
2022-09-07T07:43:30.939Z,7.60
2022-09-07T07:46:28.707Z,6.10
2022-09-07T07:49:26.221Z,6.50
2022-09-07T07:55:43.860Z,6.00
2022-09-07T07:58:41.722Z,6.40
2022-09-07T08:01:39.239Z,6.80
2022-09-07T08:04:37.003Z,6.50
2022-09-07T08:07:34.461Z,5.80
2022-09-07T08:10:31.885Z,5.00
2022-09-07T08:13:29.444Z,5.20
2022-09-07T08:16:27.020Z,5.80
2022-09-07T08:19:24.652Z,4.60
2022-09-07T08:22:22.083Z,5.20
2022-09-07T08:25:19.800Z,6.00
2022-09-07T08:28:17.247Z,5.80
2022-09-07T08:31:14.776Z,6.40
2022-09-07T08:34:12.256Z,5.30
2022-09-07T08:37:09.702Z,6.50
2022-09-07T08:40:07.295Z,5.30
2022-09-07T08:43:05.008Z,5.50
2022-09-07T08:46:02.433Z,5.70
2022-09-07T08:48:59.886Z,5.20
2022-09-07T08:51:57.304Z,5.20
2022-09-07T08:54:54.800Z,5.30
2022-09-07T08:57:52.286Z,5.10
2022-09-07T09:00:50.254Z,5.10
2022-09-07T09:07:05.317Z,4.40
2022-09-07T09:10:02.891Z,5.70
2022-09-07T09:13:01.580Z,5.30
2022-09-07T09:15:59.102Z,5.60
2022-09-07T09:18:56.597Z,4.20
2022-09-07T09:21:54.034Z,3.80
2022-09-07T09:24:51.506Z,3.70
2022-09-07T09:27:48.995Z,3.80
2022-09-07T09:30:47.933Z,3.30
2022-09-07T09:33:45.794Z,3.60
2022-09-07T09:36:43.243Z,3.40
2022-09-07T09:39:42.764Z,3.70
2022-09-07T09:42:40.878Z,3.60
2022-09-07T09:48:55.708Z,3.80
2022-09-07T09:55:33.335Z,2.90
2022-09-07T10:05:03.251Z,2.80
2022-09-07T10:08:00.678Z,3.00
2022-09-07T10:10:58.111Z,3.30
2022-09-07T10:13:55.964Z,3.20
2022-09-07T10:16:53.399Z,3.30
2022-09-07T10:19:50.891Z,3.30
2022-09-07T10:22:51.434Z,2.80
2022-09-07T10:25:49.112Z,2.60
2022-09-07T10:32:03.939Z,3.10
2022-09-07T10:35:01.361Z,3.00
2022-09-07T10:37:58.805Z,2.90
2022-09-07T10:40:56.237Z,3.00
2022-09-07T10:43:53.797Z,3.10
2022-09-07T10:46:58.580Z,2.70
2022-09-07T10:53:39.613Z,2.80
2022-09-07T10:56:31.063Z,2.90
2022-09-07T11:00:07.501Z,2.80
2022-09-07T11:03:24.841Z,2.60
2022-09-07T11:06:04.471Z,2.70
2022-09-07T11:09:18.058Z,2.90
2022-09-07T11:12:16.162Z,2.70
2022-09-07T11:15:13.589Z,2.50
2022-09-07T11:18:11.030Z,3.00
2022-09-07T11:21:08.486Z,2.50
2022-09-07T11:24:09.364Z,3.00
2022-09-07T11:27:06.825Z,2.80
2022-09-07T11:30:05.145Z,2.80
2022-09-07T11:33:02.608Z,2.60
2022-09-07T11:36:02.300Z,2.60
2022-09-07T11:39:00.037Z,2.40
2022-09-07T11:41:57.714Z,2.60
2022-09-07T11:44:55.330Z,2.40
2022-09-07T11:47:52.786Z,2.60
2022-09-07T11:50:50.283Z,3.10
2022-09-07T11:53:47.729Z,2.70
2022-09-07T11:56:45.574Z,3.20
2022-09-07T11:59:43.423Z,2.40
2022-09-07T12:02:58.410Z,2.70
2022-09-07T12:05:57.125Z,2.80
2022-09-07T12:08:54.571Z,2.40
2022-09-07T12:11:52.029Z,2.80
2022-09-07T12:14:50.533Z,3.20
2022-09-07T12:17:47.979Z,2.50
2022-09-07T12:20:45.410Z,2.70
2022-09-07T12:23:42.851Z,2.70
2022-09-07T12:26:40.275Z,2.60
2022-09-07T12:29:37.714Z,2.60
2022-09-07T12:35:52.551Z,2.70
2022-09-07T12:38:50.148Z,2.70
2022-09-07T12:41:47.895Z,2.60
2022-09-07T12:44:45.602Z,2.80
2022-09-07T12:47:43.044Z,2.60
2022-09-07T12:50:42.279Z,2.90
2022-09-07T12:53:39.997Z,2.80
2022-09-07T12:56:37.426Z,2.70
2022-09-07T12:59:34.864Z,2.90
2022-09-07T13:02:32.413Z,2.40
2022-09-07T13:05:30.668Z,2.30
2022-09-07T13:08:28.217Z,2.50
2022-09-07T13:11:25.668Z,3.40
2022-09-07T13:14:23.373Z,2.70
2022-09-07T13:17:20.950Z,2.90
2022-09-07T13:20:18.470Z,2.40
2022-09-07T13:23:15.906Z,2.80
2022-09-07T13:26:13.331Z,2.60
2022-09-07T13:29:10.785Z,2.90
2022-09-07T13:32:08.232Z,2.90
2022-09-07T13:35:05.683Z,2.70
2022-09-07T13:38:03.114Z,2.80
2022-09-07T13:41:00.537Z,2.50
2022-09-07T13:43:58.485Z,2.80
2022-09-07T13:46:55.911Z,2.70
2022-09-07T13:49:55.903Z,2.70
2022-09-07T13:52:53.890Z,3.10
2022-09-07T13:55:51.324Z,2.70
2022-09-07T13:58:48.771Z,2.50
2022-09-07T14:01:46.280Z,2.80
2022-09-07T14:04:44.409Z,2.80
2022-09-07T14:07:41.838Z,2.50
2022-09-07T14:10:39.264Z,2.60
2022-09-07T14:13:36.712Z,3.10
2022-09-07T14:16:34.356Z,3.20
2022-09-07T14:19:31.812Z,3.10
2022-09-07T14:22:29.250Z,3.00
2022-09-07T14:25:26.973Z,3.10
2022-09-07T14:28:24.732Z,3.00
2022-09-07T14:31:22.252Z,3.00
2022-09-07T14:34:19.743Z,3.10
2022-09-07T14:37:17.160Z,3.20
2022-09-07T14:40:14.691Z,2.90
2022-09-07T14:43:12.161Z,3.10
2022-09-07T14:46:09.654Z,3.10
2022-09-07T14:49:08.000Z,2.70
2022-09-07T14:52:05.632Z,2.90
2022-09-07T14:55:03.053Z,3.10
2022-09-07T14:58:04.207Z,3.00
2022-09-07T15:04:22.442Z,3.10
2022-09-07T15:07:20.038Z,3.20
2022-09-07T15:10:17.482Z,3.30
2022-09-07T15:13:14.930Z,2.70
2022-09-07T15:16:13.283Z,2.90
2022-09-07T15:19:10.809Z,2.90
2022-09-07T15:22:08.295Z,2.90
2022-09-07T15:25:05.772Z,2.80
2022-09-07T15:28:03.191Z,3.40
2022-09-07T15:34:18.227Z,2.80
2022-09-07T15:40:33.752Z,2.90
2022-09-07T15:43:31.384Z,2.60
2022-09-07T15:46:29.055Z,2.80
2022-09-07T15:49:28.043Z,2.30
2022-09-07T15:52:25.804Z,2.50
2022-09-07T15:55:24.506Z,2.70
2022-09-07T15:58:21.915Z,2.60
2022-09-07T16:04:38.795Z,3.10
2022-09-07T16:10:55.320Z,2.40
2022-09-07T16:13:53.446Z,2.80
2022-09-07T16:20:08.384Z,2.60
2022-09-07T16:23:13.981Z,3.00
2022-09-07T16:26:12.385Z,2.40
2022-09-07T16:29:10.480Z,2.80
2022-09-07T16:35:25.303Z,2.70
2022-09-07T16:41:40.183Z,2.60
2022-09-07T16:44:37.628Z,3.00
2022-09-07T16:47:35.062Z,2.70
2022-09-07T16:50:32.524Z,3.00
2022-09-07T16:53:29.974Z,2.40
2022-09-07T16:56:27.415Z,2.90
2022-09-07T16:59:26.871Z,2.50
2022-09-07T17:02:24.315Z,2.60
2022-09-07T17:05:21.810Z,2.70
2022-09-07T17:08:19.237Z,2.60
2022-09-07T17:11:17.180Z,2.90
2022-09-07T17:14:14.666Z,3.00
2022-09-07T17:17:12.093Z,3.10
2022-09-07T17:20:09.530Z,2.90
2022-09-07T17:23:07.009Z,3.40
2022-09-07T17:26:04.430Z,3.50
2022-09-07T17:29:01.866Z,3.80
2022-09-07T17:35:17.755Z,3.70
2022-09-07T17:41:32.669Z,3.60
2022-09-07T17:44:35.844Z,3.80
2022-09-07T17:47:35.456Z,4.20
2022-09-07T17:50:32.986Z,4.00
2022-09-07T17:53:30.528Z,4.30
2022-09-07T17:56:28.041Z,3.80
2022-09-07T18:02:43.217Z,4.00
2022-09-07T18:05:41.036Z,4.20
2022-09-07T18:08:38.868Z,4.30
2022-09-07T18:11:45.855Z,4.00
2022-09-07T18:14:44.830Z,4.00
2022-09-07T18:17:42.551Z,4.30
2022-09-07T18:20:40.405Z,3.90
2022-09-07T18:23:38.261Z,4.40
2022-09-07T18:26:36.130Z,4.30
2022-09-07T18:29:34.557Z,4.30
2022-09-07T18:32:32.201Z,4.40
2022-09-07T18:35:30.035Z,4.30
2022-09-07T18:38:27.924Z,4.40
2022-09-07T18:41:25.769Z,4.90
2022-09-07T18:47:47.519Z,5.50
2022-09-07T18:50:45.559Z,5.70
2022-09-07T18:53:43.924Z,5.70
2022-09-07T18:56:41.830Z,6.30
2022-09-07T18:59:40.985Z,5.60
2022-09-07T19:02:39.121Z,5.60
2022-09-07T19:05:53.112Z,5.60
2022-09-07T19:08:51.315Z,5.10
2022-09-07T19:11:49.959Z,5.00
2022-09-07T19:14:47.854Z,5.50
2022-09-07T19:17:45.805Z,5.00
2022-09-07T19:20:44.172Z,4.80
2022-09-07T19:23:42.075Z,4.70
2022-09-07T19:26:40.253Z,5.30
2022-09-07T19:29:38.166Z,5.60
2022-09-07T19:32:35.957Z,5.10
2022-09-07T19:35:34.138Z,5.40
2022-09-07T19:38:32.189Z,5.20
2022-09-07T19:41:30.150Z,5.70
2022-09-07T19:44:28.536Z,4.90
2022-09-07T19:47:26.449Z,4.70
2022-09-07T19:50:24.367Z,5.50
2022-09-07T19:53:23.601Z,5.50
2022-09-07T19:56:22.582Z,5.80
2022-09-07T19:59:20.766Z,5.80
2022-09-07T20:02:18.717Z,6.10
2022-09-07T20:05:16.713Z,6.10
2022-09-07T20:08:14.611Z,6.30
2022-09-07T20:11:12.435Z,6.60
2022-09-07T20:14:10.264Z,6.10
2022-09-07T20:17:08.128Z,6.00
2022-09-07T20:20:06.405Z,7.00
2022-09-07T20:23:04.096Z,7.10
2022-09-07T20:26:01.967Z,7.30
2022-09-07T20:29:16.754Z,6.40
2022-09-07T20:32:18.052Z,6.60
2022-09-07T20:35:15.631Z,6.70
2022-09-07T20:38:13.195Z,7.00
2022-09-07T20:41:10.650Z,7.90
2022-09-07T20:44:08.065Z,7.50
2022-09-07T20:47:05.722Z,7.40
2022-09-07T20:50:03.244Z,7.10
2022-09-07T20:53:00.690Z,8.00
2022-09-07T20:55:58.137Z,7.30
2022-09-07T20:58:55.576Z,7.30
2022-09-07T21:01:53.057Z,7.30
2022-09-07T21:04:50.535Z,7.40
2022-09-07T21:07:47.982Z,7.10
2022-09-07T21:10:45.413Z,7.50
2022-09-07T21:13:42.887Z,7.30
2022-09-07T21:16:40.462Z,8.00
2022-09-07T21:19:37.993Z,7.10
2022-09-07T21:22:35.434Z,8.10
2022-09-07T21:25:32.871Z,7.50
2022-09-07T21:28:30.331Z,7.60
2022-09-07T21:31:27.826Z,8.10
2022-09-07T21:34:25.339Z,7.50
2022-09-07T21:37:22.799Z,7.70
2022-09-07T21:40:20.232Z,8.70
2022-09-07T21:43:17.665Z,7.70
2022-09-07T21:46:15.824Z,7.90
2022-09-07T21:49:13.280Z,8.00
2022-09-07T21:52:10.709Z,8.20
2022-09-07T21:55:08.153Z,8.30
2022-09-07T21:58:05.746Z,8.50
2022-09-07T22:01:03.460Z,8.30
2022-09-07T22:04:00.928Z,8.70
2022-09-07T22:06:58.349Z,8.80
2022-09-07T22:09:55.786Z,8.30
2022-09-07T22:12:53.272Z,8.40
2022-09-07T22:15:50.750Z,8.90
2022-09-07T22:18:48.220Z,8.90
2022-09-07T22:21:45.633Z,8.90
2022-09-07T22:24:43.089Z,8.50
2022-09-07T22:27:40.522Z,9.00
2022-09-07T22:30:37.966Z,8.50
2022-09-07T22:33:35.391Z,9.40
2022-09-07T22:36:32.933Z,9.50
2022-09-07T22:39:30.400Z,8.90
2022-09-07T22:42:27.833Z,8.60
2022-09-07T22:45:25.264Z,8.80
2022-09-07T22:48:23.217Z,8.80
2022-09-07T22:51:20.624Z,8.30
2022-09-07T22:54:18.070Z,8.60
2022-09-07T22:57:15.522Z,7.70
2022-09-07T23:00:13.275Z,8.60
2022-09-07T23:03:10.788Z,8.70
2022-09-07T23:06:08.913Z,8.10
2022-09-07T23:09:06.862Z,9.00
2022-09-07T23:12:04.638Z,8.70
2022-09-07T23:15:02.080Z,9.20
2022-09-07T23:17:59.519Z,8.50
2022-09-07T23:21:00.282Z,8.50
2022-09-07T23:23:58.114Z,9.10
2022-09-07T23:26:55.567Z,8.60
2022-09-07T23:29:53.000Z,9.00
2022-09-07T23:32:50.445Z,8.40
2022-09-07T23:35:47.962Z,8.70
2022-09-07T23:38:45.451Z,8.70
2022-09-07T23:41:42.890Z,9.70
2022-09-07T23:44:40.327Z,9.00
2022-09-07T23:47:37.758Z,8.20
2022-09-07T23:50:35.461Z,8.80
2022-09-07T23:53:33.018Z,9.00
2022-09-07T23:56:31.322Z,8.50
2022-09-07T23:59:28.779Z,9.10
